Time;durP1;ratioP1;P1;durP2;ratioP2;P2;SDS_P1;SDS_P2;PMS_P1;PMS_P2;Temp;Humidity;BMP_temperature;BMP_pressure;BME280_temperature;BME280_humidity;BME280_pressure;Samples;Min_cycle;Max_cycle;Signal;HPM_P1;HPM_P2
2021/11/03 00:02:10;;;;;;;33.92;23.98;;;;;;;9.86;100.00;100713.12;1727697;82;21020;-84
2021/11/03 00:04:40;;;;;;;36.15;24.37;;;;;;;9.86;100.00;100717.03;1723765;81;21115;-83
2021/11/03 00:07:11;;;;;;;38.50;24.65;;;;;;;9.87;100.00;100717.39;1742541;81;21126;-84
2021/11/03 00:09:39;;;;;;;37.48;25.32;;;;;;;9.87;100.00;100712.67;1764895;81;21495;-83
2021/11/03 00:12:13;;;;;;;34.25;23.90;;;;;;;9.88;100.00;100720.36;1734021;81;21577;-83
2021/11/03 00:14:41;;;;;;;35.08;23.20;;;;;;;9.88;100.00;100723.45;1731960;81;21608;-84
2021/11/03 00:17:08;;;;;;;31.60;23.98;;;;;;;9.85;100.00;100719.75;1762029;81;21003;-84
2021/11/03 00:19:36;;;;;;;34.83;24.80;;;;;;;9.83;100.00;100726.81;1784789;80;21483;-84
2021/11/03 00:22:04;;;;;;;39.40;23.15;;;;;;;9.81;100.00;100719.13;1766751;81;21497;-84
2021/11/03 00:24:34;;;;;;;37.28;23.07;;;;;;;9.78;100.00;100714.98;1783917;80;21074;-83
2021/11/03 00:27:02;;;;;;;34.65;24.32;;;;;;;9.79;100.00;100723.16;1762914;81;21152;-84
2021/11/03 00:29:29;;;;;;;34.58;23.92;;;;;;;9.80;100.00;100721.37;1719875;82;20947;-83
2021/11/03 00:31:57;;;;;;;32.50;23.52;;;;;;;9.78;100.00;100711.08;1767913;81;21009;-83
2021/11/03 00:34:24;;;;;;;36.00;25.05;;;;;;;9.79;100.00;100717.95;1767670;81;21524;-83
2021/11/03 00:36:51;;;;;;;36.77;24.10;;;;;;;9.79;100.00;100728.36;1767634;81;21053;-83
2021/11/03 00:39:22;;;;;;;30.20;22.93;;;;;;;9.79;100.00;100736.61;1783545;80;21156;-83
2021/11/03 00:41:48;;;;;;;31.60;22.67;;;;;;;9.79;100.00;100743.95;1772344;80;21568;-84
2021/11/03 00:44:16;;;;;;;29.80;22.50;;;;;;;9.77;100.00;100748.42;1754568;80;21982;-83
2021/11/03 00:46:44;;;;;;;29.40;21.93;;;;;;;9.75;100.00;100745.09;1735192;81;21028;-83
2021/11/03 00:49:11;;;;;;;32.08;22.07;;;;;;;9.72;100.00;100744.02;1753859;81;21434;-84
2021/11/03 00:51:38;;;;;;;30.50;20.17;;;;;;;9.72;100.00;100739.27;1754128;81;21800;-84
2021/11/03 00:54:05;;;;;;;27.65;20.65;;;;;;;9.70;100.00;100735.49;1755274;80;21080;-87
2021/11/03 00:56:33;;;;;;;28.65;21.07;;;;;;;9.73;100.00;100741.79;1754534;80;21024;-86
2021/11/03 00:59:00;;;;;;;27.82;20.75;;;;;;;9.74;100.00;100734.81;1754350;80;21027;-87
2021/11/03 01:01:28;;;;;;;29.10;21.95;;;;;;;9.74;100.00;100733.03;1782964;80;21031;-87
2021/11/03 01:03:56;;;;;;;28.87;21.02;;;;;;;9.76;100.00;100743.34;1759480;80;21223;-84
2021/11/03 01:06:24;;;;;;;30.82;22.15;;;;;;;9.76;100.00;100745.46;1780870;80;20986;-83
2021/11/03 01:08:51;;;;;;;31.57;21.75;;;;;;;9.74;100.00;100740.01;1784985;80;20999;-84
2021/11/03 01:11:20;;;;;;;32.28;21.25;;;;;;;9.75;100.00;100750.30;1784887;80;21055;-83
2021/11/03 01:13:47;;;;;;;31.55;21.50;;;;;;;9.75;100.00;100758.09;1785079;79;21524;-84
2021/11/03 01:16:15;;;;;;;30.30;21.90;;;;;;;9.76;100.00;100762.36;1783098;80;21125;-84
2021/11/03 01:18:42;;;;;;;28.70;20.95;;;;;;;9.79;100.00;100763.91;1776510;80;21072;-84
2021/11/03 01:21:10;;;;;;;30.57;22.20;;;;;;;9.79;100.00;100761.31;1743606;80;21083;-83
2021/11/03 01:23:38;;;;;;;32.20;21.87;;;;;;;9.79;100.00;100769.97;1776587;80;21008;-83
2021/11/03 01:26:05;;;;;;;28.52;21.05;;;;;;;9.79;100.00;100786.87;1776609;80;21082;-83
2021/11/03 01:28:32;;;;;;;30.65;21.35;;;;;;;9.79;100.00;100780.37;1775771;80;21149;-83
2021/11/03 01:30:59;;;;;;;34.92;22.37;;;;;;;9.80;100.00;100779.88;1743265;80;21047;-84
2021/11/03 01:33:26;;;;;;;30.72;21.87;;;;;;;9.79;100.00;100785.57;1742838;80;21022;-83
2021/11/03 01:35:53;;;;;;;29.60;19.80;;;;;;;9.81;100.00;100785.94;1776728;80;21020;-83
2021/11/03 01:38:20;;;;;;;31.33;22.17;;;;;;;9.83;100.00;100787.94;1776834;80;21047;-83
2021/11/03 01:40:50;;;;;;;30.37;21.65;;;;;;;9.84;100.00;100783.10;1768251;80;21977;-83
2021/11/03 01:43:43;;;;;;;30.02;22.27;;;;;;;9.83;100.00;100782.73;1753644;80;21844;-83
2021/11/03 01:46:36;;;;;;;32.67;23.12;;;;;;;9.83;100.00;100781.44;1776727;80;21008;-84
2021/11/03 01:49:22;;;;;;;35.45;23.30;;;;;;;9.82;100.00;100782.37;1750725;80;21065;-83
2021/11/03 01:52:02;;;;;;;36.33;23.10;;;;;;;9.83;100.00;100776.23;1756002;80;21043;-86
2021/11/03 01:54:46;;;;;;;35.50;24.77;;;;;;;9.87;100.00;100779.82;1745073;82;21875;-83
2021/11/03 01:57:21;;;;;;;34.78;24.20;;;;;;;9.90;100.00;100783.52;1740518;82;21001;-83
2021/11/03 01:59:53;;;;;;;36.88;24.72;;;;;;;9.92;100.00;100790.75;1740076;82;21071;-83
2021/11/03 02:02:22;;;;;;;37.10;25.90;;;;;;;9.92;100.00;100782.10;1711300;82;21076;-84
2021/11/03 02:04:55;;;;;;;36.13;26.57;;;;;;;9.92;100.00;100776.45;1740570;79;21109;-83
2021/11/03 02:07:28;;;;;;;36.93;25.20;;;;;;;9.90;100.00;100777.47;1769490;80;21016;-83
2021/11/03 02:09:56;;;;;;;40.17;28.17;;;;;;;9.83;100.00;100771.88;1770965;80;21017;-83
2021/11/03 02:12:28;;;;;;;44.03;28.38;;;;;;;9.79;100.00;100770.41;1746460;80;21063;-83
2021/11/03 02:14:56;;;;;;;35.10;25.27;;;;;;;9.73;100.00;100770.39;1708278;82;21517;-83
2021/11/03 02:17:25;;;;;;;43.10;29.07;;;;;;;9.70;100.00;100776.25;1742395;80;21365;-84
2021/11/03 02:20:00;;;;;;;39.45;27.55;;;;;;;9.70;100.00;100772.34;1706769;82;21786;-83
2021/11/03 02:22:54;;;;;;;47.75;26.50;;;;;;;9.68;100.00;100771.16;1737179;81;21064;-84
2021/11/03 02:25:25;;;;;;;39.08;25.80;;;;;;;9.68;100.00;100776.36;1710185;81;21033;-83
2021/11/03 02:27:55;;;;;;;42.93;28.47;;;;;;;9.71;100.00;100782.66;1731946;81;21628;-83
2021/11/03 02:30:26;;;;;;;43.10;28.07;;;;;;;9.72;100.00;100787.38;1738936;81;21016;-84
2021/11/03 02:33:01;;;;;;;42.40;28.83;;;;;;;9.69;100.00;100785.02;1738077;81;21177;-84
2021/11/03 02:35:28;;;;;;;46.48;28.67;;;;;;;9.67;100.00;100783.80;1726239;81;21044;-83
2021/11/03 02:37:57;;;;;;;47.80;28.85;;;;;;;9.62;100.00;100782.81;1755790;81;21073;-83
2021/11/03 02:40:33;;;;;;;44.98;28.57;;;;;;;9.59;100.00;100785.64;1755085;81;21097;-84
2021/11/03 02:43:06;;;;;;;45.40;28.27;;;;;;;9.57;100.00;100782.78;1763225;81;21067;-84
2021/11/03 02:45:48;;;;;;;50.65;30.02;;;;;;;9.55;100.00;100780.75;1759813;80;21155;-83
2021/11/03 02:48:17;;;;;;;47.48;31.12;;;;;;;9.52;100.00;100780.95;1745274;81;21017;-84
2021/11/03 02:51:08;;;;;;;46.92;30.37;;;;;;;9.49;100.00;100781.99;1725140;82;21061;-81
2021/11/03 02:53:45;;;;;;;;;;;;;;;9.44;100.00;100783.60;1712040;80;21019;-84
2021/11/03 02:56:15;;;;;;;48.68;30.12;;;;;;;9.40;100.00;100776.96;1737200;81;20196;-83
2021/11/03 02:58:43;;;;;;;52.48;31.45;;;;;;;9.39;100.00;100778.34;1764519;80;21146;-87
2021/11/03 03:01:21;;;;;;;48.87;31.70;;;;;;;9.41;100.00;100781.23;1751867;81;21042;-86
2021/11/03 03:03:49;;;;;;;47.50;30.68;;;;;;;9.39;100.00;100783.55;1733019;81;21704;-84
2021/11/03 03:06:23;;;;;;;49.98;31.02;;;;;;;9.38;100.00;100783.17;1755093;81;21041;-82
2021/11/03 03:08:52;;;;;;;48.00;30.88;;;;;;;9.37;100.00;100779.75;1747334;81;21097;-85
2021/11/03 03:11:21;;;;;;;46.23;30.72;;;;;;;9.37;100.00;100779.75;1752735;81;21842;-83
2021/11/03 03:13:49;;;;;;;46.90;31.07;;;;;;;9.39;100.00;100779.64;1724535;81;21101;-83
2021/11/03 03:16:22;;;;;;;56.13;32.80;;;;;;;9.42;100.00;100777.67;1692567;83;21069;-85
2021/11/03 03:18:51;;;;;;;54.53;32.85;;;;;;;9.46;100.00;100772.64;1783804;78;21009;-83
2021/11/03 03:21:21;;;;;;;46.63;30.95;;;;;;;9.45;100.00;100771.45;1760068;80;21072;-83
2021/11/03 03:23:50;;;;;;;48.58;30.40;;;;;;;9.44;100.00;100774.50;1743696;79;21049;-83
2021/11/03 03:26:22;;;;;;;56.20;32.63;;;;;;;9.49;100.00;100776.80;1803592;79;20965;-83
2021/11/03 03:28:51;;;;;;;50.35;33.80;;;;;;;9.50;100.00;100772.41;1766231;79;21038;-84
2021/11/03 03:31:20;;;;;;;52.78;33.90;;;;;;;9.51;100.00;100774.08;1771685;79;21103;-84
2021/11/03 03:33:50;;;;;;;53.38;34.95;;;;;;;9.52;100.00;100778.34;1770226;79;21096;-84
2021/11/03 03:36:19;;;;;;;54.88;34.20;;;;;;;9.54;100.00;100782.98;1769020;79;21675;-83
2021/11/03 03:38:47;;;;;;;55.05;33.98;;;;;;;9.53;100.00;100786.52;1769453;79;21041;-82
2021/11/03 03:41:15;;;;;;;59.27;37.63;;;;;;;9.51;100.00;100776.68;1736525;81;21037;-83
2021/11/03 03:43:43;;;;;;;57.03;37.35;;;;;;;9.49;100.00;100785.08;1751848;79;21031;-82
2021/11/03 03:46:11;;;;;;;55.50;36.38;;;;;;;9.47;100.00;100783.41;1746420;79;20949;-82
2021/11/03 03:48:39;;;;;;;55.28;35.70;;;;;;;9.44;100.00;100777.10;1771691;79;21102;-82
2021/11/03 03:51:08;;;;;;;56.02;36.63;;;;;;;9.42;100.00;100784.64;1771039;79;21484;-83
2021/11/03 03:53:35;;;;;;;66.02;38.45;;;;;;;9.42;100.00;100780.75;1769244;79;21065;-83
2021/11/03 03:56:03;;;;;;;58.85;37.58;;;;;;;9.42;100.00;100778.97;1793879;79;21025;-83
2021/11/03 03:58:30;;;;;;;61.30;38.58;;;;;;;9.46;100.00;100784.78;1801084;78;20945;-84
2021/11/03 04:00:57;;;;;;;58.70;37.38;;;;;;;9.49;100.00;100778.58;1808378;79;21125;-84
2021/11/03 04:03:24;;;;;;;63.95;39.45;;;;;;;9.51;100.00;100774.08;1777719;79;21613;-83
2021/11/03 04:05:54;;;;;;;63.30;38.67;;;;;;;9.55;100.00;100770.35;1811045;79;21147;-82
2021/11/03 04:08:22;;;;;;;61.13;38.35;;;;;;;9.55;100.00;100762.55;1791411;79;21037;-85
2021/11/03 04:10:50;;;;;;;62.03;39.73;;;;;;;9.56;100.00;100772.02;1777393;79;21034;-83
2021/11/03 04:13:20;;;;;;;65.30;38.85;;;;;;;9.52;100.00;100767.50;1749103;81;21134;-84
2021/11/03 04:15:49;;;;;;;62.38;39.33;;;;;;;9.48;100.00;100769.92;1759522;80;21484;-83
2021/11/03 04:18:16;;;;;;;67.45;40.05;;;;;;;9.49;100.00;100772.89;1755685;79;21045;-84
2021/11/03 04:20:44;;;;;;;70.90;39.27;;;;;;;9.47;100.00;100760.46;1741142;80;21070;-84
2021/11/03 04:23:11;;;;;;;64.90;37.93;;;;;;;9.43;100.00;100752.05;1742071;80;21000;-83
2021/11/03 04:25:38;;;;;;;69.40;40.85;;;;;;;9.39;100.00;100750.61;1776720;80;21710;-84
2021/11/03 04:28:06;;;;;;;71.02;41.00;;;;;;;9.38;100.00;100745.48;1756535;80;21532;-83
2021/11/03 04:30:34;;;;;;;135.37;42.85;;;;;;;9.32;100.00;100755.86;1774494;80;21073;-83
2021/11/03 04:33:03;;;;;;;113.60;41.60;;;;;;;9.52;100.00;100762.75;1773808;80;21594;-85
2021/11/03 04:35:32;;;;;;;96.82;40.48;;;;;;;10.15;100.00;100762.73;1774413;80;21042;-86
2021/11/03 04:38:00;;;;;;;73.87;40.95;;;;;;;10.63;100.00;100761.96;1773888;80;21186;-85
2021/11/03 04:40:29;;;;;;;92.85;40.52;;;;;;;10.62;100.00;100762.41;1774647;80;21038;-87
2021/11/03 04:42:57;;;;;;;82.10;38.25;;;;;;;10.44;100.00;100765.08;1774223;80;21054;-87
2021/11/03 04:45:27;;;;;;;74.53;41.23;;;;;;;10.41;100.00;100777.36;1773301;80;21058;-86
2021/11/03 04:47:54;;;;;;;81.87;39.53;;;;;;;10.65;100.00;100790.85;1773492;80;21780;-87
2021/11/03 04:50:27;;;;;;;75.90;38.30;;;;;;;10.74;100.00;100795.84;1773784;80;21868;-87
2021/11/03 04:52:55;;;;;;;163.40;44.10;;;;;;;10.77;100.00;100808.66;1753431;80;21077;-87
2021/11/03 04:55:22;;;;;;;106.47;43.25;;;;;;;10.82;100.00;100803.94;1738097;80;21070;-86
2021/11/03 04:57:49;;;;;;;228.60;44.35;;;;;;;10.90;100.00;100802.08;1739571;82;20995;-86
2021/11/03 05:00:23;;;;;;;139.80;40.63;;;;;;;11.01;100.00;100795.63;1774014;79;21583;-85
2021/11/03 05:02:53;;;;;;;89.85;39.98;;;;;;;11.22;100.00;100794.13;1640286;86;21846;-86
2021/11/03 05:05:20;;;;;;;118.13;41.02;;;;;;;11.43;100.00;100786.44;1647986;85;21074;-86
2021/11/03 05:07:49;;;;;;;110.95;39.20;;;;;;;11.37;100.00;100791.67;1654704;84;21092;-86
2021/11/03 05:10:17;;;;;;;75.97;37.85;;;;;;;11.45;100.00;100787.16;1650851;84;21111;-87
2021/11/03 05:12:45;;;;;;;71.12;38.15;;;;;;;11.53;100.00;100790.02;1657224;84;21068;-88
2021/11/03 05:15:13;;;;;;;69.37;37.33;;;;;;;11.45;100.00;100789.77;1627350;85;21839;-88
2021/11/03 05:17:43;;;;;;;74.95;39.33;;;;;;;11.25;100.00;100787.37;1658230;85;21150;-86
2021/11/03 05:20:11;;;;;;;75.45;37.55;;;;;;;11.03;100.00;100778.08;1670729;84;21092;-86
2021/11/03 05:22:38;;;;;;;62.78;34.70;;;;;;;10.89;100.00;100779.13;1755154;81;21088;-87
2021/11/03 05:25:07;;;;;;;69.58;38.50;;;;;;;10.80;100.00;100775.04;1755648;81;21053;-87
2021/11/03 05:27:35;;;;;;;74.97;39.80;;;;;;;10.64;100.00;100774.86;1755212;81;21837;-85
2021/11/03 05:30:04;;;;;;;76.60;36.03;;;;;;;10.50;100.00;100781.06;1755692;81;21152;-86
2021/11/03 05:32:32;;;;;;;79.97;36.70;;;;;;;10.38;100.00;100795.80;1711474;81;21072;-90
2021/11/03 05:34:58;;;;;;;77.30;36.53;;;;;;;10.54;100.00;100798.59;1659167;83;21066;-86
2021/11/03 05:37:27;;;;;;;76.50;36.25;;;;;;;10.81;100.00;100808.81;1652901;85;21133;-87
2021/11/03 05:39:55;;;;;;;68.40;35.90;;;;;;;11.06;100.00;100808.28;1700821;81;21520;-87
2021/11/03 05:42:22;;;;;;;60.75;33.55;;;;;;;11.28;100.00;100811.42;1819625;78;21065;-86
2021/11/03 05:44:49;;;;;;;57.25;32.78;;;;;;;11.31;100.00;100813.81;1795775;78;21108;-88
2021/11/03 05:47:24;;;;;;;65.15;33.33;;;;;;;11.32;100.00;100810.72;1788930;79;21020;-86
2021/11/03 05:49:53;;;;;;;63.55;32.23;;;;;;;11.35;100.00;100817.84;1785486;80;21124;-89
2021/11/03 05:52:21;;;;;;;63.55;31.77;;;;;;;11.52;100.00;100815.73;1789088;79;21149;-87
2021/11/03 05:54:48;;;;;;;51.68;31.33;;;;;;;11.65;100.00;100815.17;1760747;80;21064;-87
2021/11/03 05:57:29;;;;;;;42.93;28.80;;;;;;;11.71;100.00;100816.95;1788890;79;21527;-88
2021/11/03 05:59:58;;;;;;;39.80;26.40;;;;;;;11.68;100.00;100816.71;1789183;79;20989;-87
2021/11/03 06:02:26;;;;;;;39.45;26.65;;;;;;;11.54;100.00;100814.33;1759655;80;21048;-86
2021/11/03 06:04:53;;;;;;;41.02;25.95;;;;;;;11.30;100.00;100817.36;1789050;80;21094;-87
2021/11/03 06:07:21;;;;;;;39.95;26.93;;;;;;;11.17;100.00;100824.45;1760222;80;21033;-87
2021/11/03 06:09:55;;;;;;;39.58;25.90;;;;;;;11.13;100.00;100830.81;1811375;78;21092;-87
2021/11/03 06:12:24;;;;;;;39.23;25.65;;;;;;;11.09;100.00;100834.61;1821041;78;21068;-87
2021/11/03 06:14:52;;;;;;;36.25;24.80;;;;;;;11.04;100.00;100835.77;1791402;78;21026;-87
2021/11/03 06:17:21;;;;;;;33.98;24.27;;;;;;;10.98;100.00;100829.70;1821179;78;20977;-88
2021/11/03 06:19:48;;;;;;;32.20;23.15;;;;;;;11.05;100.00;100840.03;1821374;78;21017;-87
2021/11/03 06:22:15;;;;;;;32.00;22.77;;;;;;;11.06;100.00;100838.25;1821324;78;21514;-87
2021/11/03 06:24:48;;;;;;;36.23;22.02;;;;;;;11.05;100.00;100834.82;1821190;78;21026;-90
2021/11/03 06:27:17;;;;;;;35.20;22.55;;;;;;;11.02;100.00;100837.64;1781352;78;21027;-91
2021/11/03 06:29:45;;;;;;;38.58;23.73;;;;;;;11.20;100.00;100841.14;1791386;78;21754;-92
2021/11/03 06:32:12;;;;;;;35.15;23.12;;;;;;;11.41;100.00;100838.71;1821812;78;21011;-92
2021/11/03 06:34:39;;;;;;;30.15;22.98;;;;;;;11.54;100.00;100837.80;1821703;78;21035;-92
2021/11/03 06:37:06;;;;;;;27.73;22.37;;;;;;;11.59;100.00;100834.36;1821717;78;21075;-93
2021/11/03 06:39:34;;;;;;;27.22;21.07;;;;;;;11.56;100.00;100835.43;1792128;78;21066;-92
2021/11/03 06:42:00;;;;;;;26.73;21.40;;;;;;;11.57;100.00;100834.48;1821600;78;21056;-92
2021/11/03 06:44:27;;;;;;;46.58;20.75;;;;;;;11.60;100.00;100836.84;1821179;78;21122;-92
2021/11/03 06:46:55;;;;;;;42.62;21.25;;;;;;;11.51;100.00;100844.06;1821710;78;21050;-91
2021/11/03 06:49:24;;;;;;;28.55;20.72;;;;;;;11.48;100.00;100842.52;1821465;78;21579;-92
2021/11/03 06:51:51;;;;;;;23.75;19.42;;;;;;;11.59;100.00;100836.97;1821553;78;20996;-90
2021/11/03 06:54:21;;;;;;;25.62;19.12;;;;;;;11.60;100.00;100839.45;1821359;78;21948;-90
2021/11/03 06:56:51;;;;;;;26.23;19.73;;;;;;;11.49;100.00;100833.75;1817156;78;21028;-90
2021/11/03 06:59:19;;;;;;;;;;;;;;;11.46;100.00;100831.85;1823520;78;21100;-89
2021/11/03 07:01:47;;;;;;;23.73;19.40;;;;;;;11.41;100.00;100827.47;1791493;78;20197;-91
2021/11/03 07:04:14;;;;;;;23.07;19.60;;;;;;;11.31;100.00;100824.24;1821646;78;21041;-90
2021/11/03 07:06:42;;;;;;;32.03;19.82;;;;;;;11.21;100.00;100833.69;1821859;78;21117;-90
2021/11/03 07:09:10;;;;;;;22.27;18.95;;;;;;;11.17;100.00;100833.09;1821303;78;21049;-89
2021/11/03 07:11:37;;;;;;;24.00;20.02;;;;;;;11.26;100.00;100834.16;1821499;78;21101;-90
2021/11/03 07:14:04;;;;;;;24.50;20.30;;;;;;;11.30;100.00;100834.31;1821215;78;21029;-88
2021/11/03 07:16:33;;;;;;;27.30;21.17;;;;;;;11.35;100.00;100829.57;1821777;78;21096;-90
2021/11/03 07:19:01;;;;;;;25.43;20.80;;;;;;;11.33;100.00;100832.78;1815378;78;21133;-91
2021/11/03 07:21:29;;;;;;;25.75;21.23;;;;;;;11.39;100.00;100834.56;1772428;79;21029;-90
2021/11/03 07:23:56;;;;;;;23.42;19.62;;;;;;;11.42;100.00;100839.53;1743063;82;21571;-91
2021/11/03 07:26:23;;;;;;;23.65;19.70;;;;;;;11.34;100.00;100840.13;1802328;79;21066;-90
2021/11/03 07:28:50;;;;;;;23.75;19.87;;;;;;;11.30;100.00;100839.52;1805841;79;21547;-90
2021/11/03 07:31:17;;;;;;;22.05;19.65;;;;;;;11.26;100.00;100843.28;1735263;82;21139;-91
2021/11/03 07:33:45;;;;;;;24.50;20.70;;;;;;;11.27;100.00;100846.74;1791371;79;21010;-89
2021/11/03 07:36:16;;;;;;;22.25;19.85;;;;;;;11.28;100.00;100843.20;1780692;79;22298;-91
2021/11/03 07:38:43;;;;;;;23.22;20.45;;;;;;;11.27;100.00;100845.44;1788843;79;21069;-90
2021/11/03 07:41:15;;;;;;;23.02;19.60;;;;;;;11.29;100.00;100841.77;1788911;78;21670;-88
2021/11/03 07:43:44;;;;;;;24.23;20.10;;;;;;;11.33;100.00;100839.77;1784507;78;21119;-89
2021/11/03 07:46:18;;;;;;;24.00;20.30;;;;;;;11.32;100.00;100845.46;1812480;79;21081;-90
2021/11/03 07:48:44;;;;;;;;;;;;;;;11.40;100.00;100846.17;1814502;79;21061;-89
2021/11/03 07:51:17;;;;;;;25.77;21.20;;;;;;;11.47;100.00;100846.55;1787456;78;20235;-89
2021/11/03 07:53:45;;;;;;;26.23;21.75;;;;;;;11.53;100.00;100842.17;1798317;78;20988;-88
2021/11/03 07:56:19;;;;;;;26.35;21.93;;;;;;;11.59;100.00;100846.09;1812645;79;21138;-91
2021/11/03 07:58:50;;;;;;;23.27;20.23;;;;;;;11.63;100.00;100852.73;1774276;79;21586;-89
2021/11/03 08:02:02;;;;;;;25.77;20.77;;;;;;;11.64;100.00;100856.55;1811264;78;21597;-88
2021/11/03 08:04:43;;;;;;;28.52;20.27;;;;;;;11.62;100.00;100848.45;1760674;80;21075;-89
2021/11/03 08:07:11;;;;;;;28.70;22.05;;;;;;;11.63;100.00;100850.97;1770818;80;21060;-89
2021/11/03 08:09:44;;;;;;;30.68;21.05;;;;;;;11.75;100.00;100852.27;1769836;80;21110;-88
2021/11/03 08:12:10;;;;;;;28.60;21.07;;;;;;;11.83;100.00;100857.73;1741295;80;21174;-88
2021/11/03 08:14:38;;;;;;;28.57;20.13;;;;;;;11.91;100.00;100860.58;1747908;80;21072;-89
2021/11/03 08:17:10;;;;;;;23.40;20.27;;;;;;;11.99;100.00;100872.59;1747464;82;21476;-88
2021/11/03 08:19:47;;;;;;;26.73;20.32;;;;;;;12.03;100.00;100874.98;1707688;82;21629;-89
2021/11/03 08:22:21;;;;;;;24.98;20.45;;;;;;;11.98;100.00;100878.77;1747496;80;21155;-89
2021/11/03 08:24:53;;;;;;;24.57;19.45;;;;;;;11.97;100.00;100882.35;1761345;80;20996;-88
2021/11/03 08:27:22;;;;;;;23.75;19.40;;;;;;;11.94;100.00;100885.61;1749860;80;21147;-88
2021/11/03 08:29:51;;;;;;;20.43;18.07;;;;;;;11.84;100.00;100885.03;1749473;80;21340;-88
2021/11/03 08:32:27;;;;;;;23.42;18.02;;;;;;;11.78;100.00;100880.26;1748854;80;21033;-88
2021/11/03 08:34:54;;;;;;;20.20;17.57;;;;;;;11.72;100.00;100882.52;1743343;80;21192;-88
2021/11/03 08:37:26;;;;;;;19.27;16.40;;;;;;;11.67;100.00;100881.56;1747616;82;20974;-87
2021/11/03 08:39:55;;;;;;;19.92;16.80;;;;;;;11.66;100.00;100882.02;1743194;81;21591;-88
2021/11/03 08:42:23;;;;;;;24.50;17.77;;;;;;;11.66;100.00;100878.59;1747996;80;21625;-88
2021/11/03 08:44:51;;;;;;;26.00;17.52;;;;;;;11.65;100.00;100875.17;1761429;80;21032;-88
2021/11/03 08:47:19;;;;;;;20.90;18.00;;;;;;;11.67;100.00;100875.86;1779561;80;21150;-90
2021/11/03 08:49:46;;;;;;;20.05;16.97;;;;;;;11.72;100.00;100879.91;1770154;80;20979;-88
2021/11/03 08:52:15;;;;;;;23.98;18.05;;;;;;;11.74;100.00;100881.45;1739365;81;21133;-89
2021/11/03 08:54:49;;;;;;;19.15;16.93;;;;;;;11.78;100.00;100884.66;1751874;80;21017;-87
2021/11/03 08:57:23;;;;;;;20.90;16.12;;;;;;;11.75;100.00;100883.12;1780126;80;21116;-86
2021/11/03 08:59:51;;;;;;;21.62;17.60;;;;;;;11.80;100.00;100882.77;1779576;79;21194;-88
2021/11/03 09:02:20;;;;;;;18.98;16.25;;;;;;;11.82;100.00;100883.46;1749433;80;21069;-87
2021/11/03 09:04:51;;;;;;;23.70;16.48;;;;;;;11.87;100.00;100884.42;1763174;80;21095;-86
2021/11/03 09:07:18;;;;;;;17.23;15.43;;;;;;;11.89;100.00;100885.14;1749591;80;21039;-87
2021/11/03 09:09:45;;;;;;;18.70;16.52;;;;;;;11.90;100.00;100882.41;1720425;82;21028;-86
2021/11/03 09:12:16;;;;;;;19.70;17.60;;;;;;;11.91;100.00;100882.77;1743866;80;21795;-86
2021/11/03 09:14:43;;;;;;;18.32;16.37;;;;;;;11.92;100.00;100875.78;1747952;80;21029;-87
2021/11/03 09:17:13;;;;;;;21.65;16.95;;;;;;;11.92;100.00;100879.21;1747160;82;21042;-86
2021/11/03 09:19:41;;;;;;;21.95;16.17;;;;;;;11.91;100.00;100881.95;1747554;81;21022;-84
2021/11/03 09:22:08;;;;;;;20.57;15.63;;;;;;;11.90;100.00;100877.67;1716075;82;21010;-85
2021/11/03 09:24:38;;;;;;;18.92;15.70;;;;;;;11.88;100.00;100878.26;1748646;80;21137;-86
2021/11/03 09:27:13;;;;;;;28.40;17.60;;;;;;;11.87;100.00;100877.89;1749545;80;21048;-84
2021/11/03 09:29:36;;;;;;;134.78;23.87;;;;;;;11.89;100.00;100878.16;1717441;80;21612;-85
2021/11/03 09:32:04;;;;;;;67.75;18.42;;;;;;;12.01;100.00;100874.27;1749415;81;21007;-86
2021/11/03 09:34:32;;;;;;;69.35;20.92;;;;;;;12.15;100.00;100873.56;1749504;80;21021;-85
2021/11/03 09:37:01;;;;;;;23.02;17.27;;;;;;;12.21;100.00;100872.27;1750085;80;21121;-87
2021/11/03 09:39:30;;;;;;;66.42;18.77;;;;;;;12.28;100.00;100878.66;1735744;82;21017;-86
2021/11/03 09:41:57;;;;;;;36.60;17.75;;;;;;;12.30;100.00;100876.73;1716008;82;20966;-87
2021/11/03 09:44:31;;;;;;;32.45;19.70;;;;;;;12.35;100.00;100875.08;1729790;80;20970;-85
2021/11/03 09:47:22;;;;;;;30.30;18.60;;;;;;;12.42;100.00;100872.82;1743796;81;21502;-85
2021/11/03 09:50:01;;;;;;;26.17;17.60;;;;;;;12.44;100.00;100876.15;1739234;82;21314;-84
2021/11/03 09:52:39;;;;;;;27.15;18.48;;;;;;;12.48;100.00;100878.86;1712586;82;21026;-86
2021/11/03 09:55:23;;;;;;;25.65;19.67;;;;;;;12.55;100.00;100878.72;1758367;80;21515;-86
2021/11/03 09:57:56;;;;;;;26.90;18.70;;;;;;;12.61;100.00;100875.64;1747418;82;21005;-86
2021/11/03 10:00:37;;;;;;;37.90;19.17;;;;;;;12.67;100.00;100881.33;1718873;83;21063;-85
2021/11/03 10:03:25;;;;;;;23.98;17.27;;;;;;;12.70;100.00;100873.25;1717241;82;21202;-86
2021/11/03 10:06:25;;;;;;;21.68;18.55;;;;;;;12.72;100.00;100872.62;1709128;82;21009;-84
2021/11/03 10:08:54;;;;;;;19.98;17.07;;;;;;;12.75;100.00;100873.21;1755348;80;21025;-86
2021/11/03 10:11:36;;;;;;;20.72;16.55;;;;;;;12.82;100.00;100875.36;1769687;80;21026;-86
2021/11/03 10:14:06;;;;;;;20.62;18.07;;;;;;;12.84;100.00;100872.12;1748766;80;21086;-84
2021/11/03 10:16:51;;;;;;;18.25;15.98;;;;;;;12.85;100.00;100868.56;1744609;80;21150;-86
2021/11/03 10:19:34;;;;;;;18.27;16.37;;;;;;;12.87;100.00;100874.01;1743404;81;21650;-83
2021/11/03 10:22:23;;;;;;;17.77;15.93;;;;;;;12.85;100.00;100875.94;1747536;80;27247;-84
2021/11/03 10:25:13;;;;;;;17.85;16.00;;;;;;;12.83;100.00;100875.22;1725550;80;21350;-84
2021/11/03 10:27:51;;;;;;;19.45;17.40;;;;;;;12.85;100.00;100873.78;1734433;82;21017;-84
2021/11/03 10:30:33;;;;;;;21.42;17.52;;;;;;;12.83;100.00;100880.45;1749559;80;21164;-84
2021/11/03 10:33:14;;;;;;;19.85;17.45;;;;;;;12.82;100.00;100876.66;1715048;82;21041;-87
2021/11/03 10:35:56;;;;;;;18.40;16.25;;;;;;;12.83;100.00;100875.69;1721719;80;21049;-84
2021/11/03 10:38:26;;;;;;;19.75;17.67;;;;;;;12.79;100.00;100877.72;1742683;80;21022;-85
2021/11/03 10:41:02;;;;;;;18.45;16.48;;;;;;;12.81;100.00;100876.30;1742266;80;21048;-84
2021/11/03 10:43:34;;;;;;;19.90;17.15;;;;;;;12.85;100.00;100875.09;1749244;81;21780;-86
2021/11/03 10:46:20;;;;;;;19.82;17.55;;;;;;;12.81;100.00;100867.98;1763087;80;20982;-84
2021/11/03 10:48:55;;;;;;;19.55;17.52;;;;;;;12.81;100.00;100868.47;1771334;80;21049;-84
2021/11/03 10:51:35;;;;;;;21.52;17.92;;;;;;;12.83;100.00;100867.38;1744614;82;21013;-85
2021/11/03 10:54:19;;;;;;;19.20;17.00;;;;;;;12.86;100.00;100870.22;1747585;80;21068;-85
2021/11/03 10:57:01;;;;;;;20.48;17.77;;;;;;;12.89;100.00;100864.76;1728019;80;21970;-86
2021/11/03 10:59:31;;;;;;;22.35;18.77;;;;;;;12.90;100.00;100870.31;1736481;80;20993;-86
2021/11/03 11:02:23;;;;;;;22.27;19.85;;;;;;;12.91;100.00;100867.59;1780083;80;20954;-86
2021/11/03 11:04:51;;;;;;;23.32;19.37;;;;;;;12.90;100.00;100865.93;1742874;80;21077;-87
2021/11/03 11:07:40;;;;;;;20.55;18.35;;;;;;;12.92;100.00;100865.34;1749212;80;21405;-88
2021/11/03 11:10:36;;;;;;;24.92;18.75;;;;;;;12.97;100.00;100863.66;1719135;82;21096;-88
2021/11/03 11:13:09;;;;;;;160.55;24.47;;;;;;;13.05;100.00;100868.24;1701768;83;21089;-87
2021/11/03 11:15:51;;;;;;;130.85;23.30;;;;;;;13.17;100.00;100868.56;1743799;82;21484;-88
2021/11/03 11:18:39;;;;;;;70.17;22.00;;;;;;;13.28;100.00;100870.29;1744549;80;21044;-88
2021/11/03 11:21:16;;;;;;;58.10;22.98;;;;;;;13.31;100.00;100861.36;1737777;80;21597;-88
2021/11/03 11:23:48;;;;;;;39.45;20.77;;;;;;;13.23;100.00;100859.36;1771116;79;21718;-87